Time;durP1;ratioP1;P1;durP2;ratioP2;P2;SDS_P1;SDS_P2;PMS_P1;PMS_P2;Temp;Humidity;BMP_temperature;BMP_pressure;BME280_temperature;BME280_humidity;BME280_pressure;Samples;Min_cycle;Max_cycle;Signal;HPM_P1;HPM_P2
2023/07/04 00:00:31;;;;;;;;;12.00;11.33;29.10;51.60;;;;;;111194;1240;49805;-61
2023/07/04 00:03:17;;;;;;;;;12.50;11.00;29.10;51.70;;;;;;111193;1240;55400;-61
2023/07/04 00:05:48;;;;;;;;;12.00;11.00;29.10;51.50;;;;;;111254;1244;44645;-61
2023/07/04 00:08:15;;;;;;;;;11.75;10.25;29.10;51.70;;;;;;111310;1241;48999;-60
2023/07/04 00:10:43;;;;;;;;;11.00;10.00;29.10;51.50;;;;;;111218;1244;50356;-61
2023/07/04 00:13:10;;;;;;;;;13.00;12.00;29.10;51.50;;;;;;111338;1241;55276;-63
2023/07/04 00:15:49;;;;;;;;;11.00;11.00;29.10;51.50;;;;;;111141;1240;45572;-60
2023/07/04 00:18:20;;;;;;;;;12.33;12.00;29.10;51.50;;;;;;111254;1240;49343;-60
2023/07/04 00:20:55;;;;;;;;;12.00;11.00;29.10;51.50;;;;;;111158;1244;50455;-61
2023/07/04 00:23:27;;;;;;;;;12.50;12.00;29.00;51.40;;;;;;111203;1240;53963;-59
2023/07/04 00:25:55;;;;;;;;;12.00;11.00;29.00;51.60;;;;;;111187;1240;44995;-61
2023/07/04 00:28:24;;;;;;;;;11.00;11.00;29.00;51.40;;;;;;111140;1244;49413;-61
2023/07/04 00:30:52;;;;;;;;;11.75;10.25;29.00;51.40;;;;;;111043;1241;49455;-60
2023/07/04 00:33:23;;;;;;;;;11.25;10.25;29.00;51.40;;;;;;111090;1244;54353;-60
2023/07/04 00:36:01;;;;;;;;;12.33;11.00;29.00;51.40;;;;;;111235;1244;45102;-60
2023/07/04 00:38:32;;;;;;;;;13.00;12.00;29.00;51.50;;;;;;111191;1241;49322;-60
2023/07/04 00:41:20;;;;;;;;;12.25;11.50;29.00;51.40;;;;;;111147;1241;49811;-60
2023/07/04 00:43:58;;;;;;;;;11.00;10.00;29.00;51.40;;;;;;110966;1244;54168;-60
2023/07/04 00:46:39;;;;;;;;;14.75;12.00;29.00;51.40;;;;;;111548;1241;44531;-61
2023/07/04 00:49:18;;;;;;;;;11.00;10.50;29.00;51.40;;;;;;111187;1244;49024;-63
2023/07/04 00:51:57;;;;;;;;;13.33;11.67;29.00;51.30;;;;;;111239;1241;49122;-59
2023/07/04 00:54:29;;;;;;;;;10.25;9.75;29.00;51.30;;;;;;111243;1244;54072;-60
2023/07/04 00:57:03;;;;;;;;;10.00;9.00;29.00;51.30;;;;;;111231;1244;44666;-60
2023/07/04 00:59:33;;;;;;;;;12.00;10.50;29.00;51.30;;;;;;111253;1242;49295;-60
2023/07/04 01:02:00;;;;;;;;;11.25;11.00;29.00;51.30;;;;;;111216;1244;49298;-60
2023/07/04 01:04:29;;;;;;;;;14.25;13.00;29.00;51.30;;;;;;111016;1244;54700;-59
2023/07/04 01:07:35;;;;;;;;;13.00;11.00;29.00;51.30;;;;;;111238;1241;45678;-61
2023/07/04 01:10:29;;;;;;;;;10.50;9.75;29.00;51.30;;;;;;110855;1247;49972;-61
2023/07/04 01:12:58;;;;;;;;;10.25;9.75;29.00;51.40;;;;;;110946;1241;50467;-62
2023/07/04 01:15:25;;;;;;;;;14.00;12.00;29.00;51.30;;;;;;111128;1242;53391;-61
2023/07/04 01:17:53;;;;;;;;;15.00;13.75;29.00;51.30;;;;;;111249;1241;44971;-61
2023/07/04 01:20:20;;;;;;;;;12.00;11.00;29.00;51.50;;;;;;111239;1241;48920;-61
2023/07/04 01:22:59;;;;;;;;;12.50;11.00;29.00;51.50;;;;;;110961;1244;49607;-61
2023/07/04 01:25:30;;;;;;;;;10.50;10.00;29.00;51.50;;;;;;111187;1244;54492;-60
2023/07/04 01:28:03;;;;;;;;;13.00;11.25;29.00;51.40;;;;;;111253;1244;44488;-61
2023/07/04 01:30:32;;;;;;;;;13.67;12.33;29.00;51.40;;;;;;111328;1240;50041;-60
2023/07/04 01:33:00;;;;;;;;;11.67;10.33;28.90;51.30;;;;;;111378;1244;49500;-61
2023/07/04 01:35:28;;;;;;;;;10.00;9.00;28.90;51.50;;;;;;111202;1241;54432;-60
2023/07/04 01:37:55;;;;;;;;;10.33;10.33;28.90;51.30;;;;;;111068;1244;45148;-61
2023/07/04 01:40:24;;;;;;;;;11.50;10.75;28.90;51.30;;;;;;111151;1244;49118;-61
2023/07/04 01:42:51;;;;;;;;;11.33;10.67;28.90;51.50;;;;;;111193;1243;49422;-61
2023/07/04 01:45:19;;;;;;;;;11.50;11.00;28.90;51.30;;;;;;111200;1244;54038;-60
2023/07/04 01:47:46;;;;;;;;;12.50;10.75;28.90;51.40;;;;;;111174;1244;44466;-60
2023/07/04 01:50:14;;;;;;;;;10.75;9.75;28.90;51.50;;;;;;111173;1242;49734;-61
2023/07/04 01:52:41;;;;;;;;;10.50;10.00;28.90;51.30;;;;;;110973;1241;50397;-60
2023/07/04 01:55:10;;;;;;;;;11.25;11.00;28.90;51.40;;;;;;111261;1244;53608;-59
2023/07/04 01:57:38;;;;;;;;;10.00;8.00;28.90;51.40;;;;;;111368;1244;44402;-60
2023/07/04 02:00:08;;;;;;;;;11.75;10.50;28.90;51.60;;;;;;111278;1244;49672;-60
2023/07/04 02:02:37;;;;;;;;;10.33;10.00;28.90;51.90;;;;;;111359;1244;50305;-60
2023/07/04 02:05:05;;;;;;;;;10.67;10.33;28.90;51.40;;;;;;111219;1242;53981;-61
2023/07/04 02:07:32;;;;;;;;;12.00;11.00;28.90;51.60;;;;;;111269;1244;44765;-60
2023/07/04 02:09:59;;;;;;;;;13.25;12.50;28.80;51.30;;;;;;111238;1242;50330;-60
2023/07/04 02:12:26;;;;;;;;;10.00;9.00;28.80;51.30;;;;;;111143;1244;48971;-61
2023/07/04 02:14:53;;;;;;;;;12.00;11.00;28.80;51.30;;;;;;111261;1238;54485;-60
2023/07/04 02:17:20;;;;;;;;;12.00;11.67;28.80;51.30;;;;;;111515;1238;44560;-61
2023/07/04 02:19:47;;;;;;;;;11.00;10.50;28.80;51.30;;;;;;111469;1241;50310;-61
2023/07/04 02:22:14;;;;;;;;;10.00;9.25;28.80;51.30;;;;;;111308;1238;50935;-60
2023/07/04 02:24:41;;;;;;;;;12.00;11.00;28.80;51.30;;;;;;111491;1238;53511;-61
2023/07/04 02:27:08;;;;;;;;;11.75;10.75;28.80;51.50;;;;;;111299;1243;44314;-60
2023/07/04 02:29:35;;;;;;;;;11.00;10.00;28.80;51.50;;;;;;111288;1243;49239;-60
2023/07/04 02:32:02;;;;;;;;;11.00;10.33;28.80;51.30;;;;;;111292;1237;49247;-60
2023/07/04 02:34:29;;;;;;;;;11.00;9.00;28.80;51.40;;;;;;111330;1238;54220;-60
2023/07/04 02:36:56;;;;;;;;;10.50;9.50;28.80;51.30;;;;;;111269;1242;44939;-60
2023/07/04 02:39:27;;;;;;;;;12.00;10.75;28.80;51.70;;;;;;111326;1242;50202;-60
2023/07/04 02:41:54;;;;;;;;;11.00;10.33;28.80;51.30;;;;;;111300;1238;49571;-60
2023/07/04 02:44:21;;;;;;;;;9.75;9.00;28.80;51.30;;;;;;111416;1238;54789;-61
2023/07/04 02:46:48;;;;;;;;;12.00;10.00;28.80;51.30;;;;;;111332;1243;45110;-61
2023/07/04 02:49:15;;;;;;;;;10.75;9.00;28.80;51.30;;;;;;111305;1242;49353;-60
2023/07/04 02:51:42;;;;;;;;;10.00;8.00;28.80;51.30;;;;;;111331;1242;49324;-61
2023/07/04 02:54:09;;;;;;;;;11.67;11.00;28.80;51.30;;;;;;111367;1238;53370;-61
2023/07/04 02:56:36;;;;;;;;;9.00;8.00;28.70;51.20;;;;;;111405;1241;44566;-60
2023/07/04 02:59:03;;;;;;;;;11.33;10.00;28.80;51.30;;;;;;111524;1238;49420;-59
2023/07/04 03:01:30;;;;;;;;;12.00;11.33;28.80;51.20;;;;;;111266;1238;48699;-60
2023/07/04 03:03:57;;;;;;;;;10.00;9.67;28.80;51.30;;;;;;111319;1238;53882;-60
2023/07/04 03:06:24;;;;;;;;;10.00;9.00;28.80;51.30;;;;;;111289;1238;45068;-61
2023/07/04 03:08:52;;;;;;;;;11.00;9.25;28.70;51.40;;;;;;111224;1242;49195;-60
2023/07/04 03:11:19;;;;;;;;;10.00;9.25;28.70;51.20;;;;;;111251;1239;50627;-60
2023/07/04 03:13:46;;;;;;;;;11.75;11.75;28.70;51.20;;;;;;111250;1243;53927;-60
2023/07/04 03:16:13;;;;;;;;;11.00;9.67;28.70;51.20;;;;;;111495;1238;44515;-60
2023/07/04 03:18:40;;;;;;;;;12.00;11.00;28.70;51.20;;;;;;111674;1237;50175;-59
2023/07/04 03:21:07;;;;;;;;;10.00;9.50;28.70;51.20;;;;;;111697;1238;48911;-60
2023/07/04 03:23:34;;;;;;;;;10.50;9.75;28.70;51.40;;;;;;111396;1239;53740;-60
2023/07/04 03:26:01;;;;;;;;;11.25;9.50;28.70;51.20;;;;;;111248;1242;45125;-60
2023/07/04 03:28:27;;;;;;;;;10.75;10.00;28.70;51.30;;;;;;111225;1243;49860;-60
2023/07/04 03:30:55;;;;;;;;;10.00;9.00;28.70;51.40;;;;;;111290;1243;49238;-60
2023/07/04 03:33:22;;;;;;;;;8.25;8.00;28.70;51.20;;;;;;111261;1239;53648;-60
2023/07/04 03:35:49;;;;;;;;;11.00;10.50;28.70;51.20;;;;;;111383;1240;44568;-60
2023/07/04 03:38:16;;;;;;;;;10.00;9.00;28.70;51.30;;;;;;111619;1238;49629;-61
2023/07/04 03:40:43;;;;;;;;;10.50;9.00;28.70;51.20;;;;;;111384;1243;49572;-60
2023/07/04 03:43:10;;;;;;;;;9.50;9.00;28.70;51.20;;;;;;111294;1238;53396;-61
2023/07/04 03:45:37;;;;;;;;;10.00;9.33;28.70;51.30;;;;;;111256;1243;44981;-61
2023/07/04 03:48:04;;;;;;;;;10.67;10.00;28.70;51.30;;;;;;111249;1239;50427;-61
2023/07/04 03:50:31;;;;;;;;;12.00;10.25;28.70;51.20;;;;;;111245;1238;49525;-61
2023/07/04 03:52:58;;;;;;;;;11.00;10.00;28.70;51.20;;;;;;111174;1242;54731;-60
2023/07/04 03:55:25;;;;;;;;;10.00;9.00;28.70;51.20;;;;;;111273;1238;44351;-60
2023/07/04 03:57:52;;;;;;;;;10.00;9.00;28.70;51.20;;;;;;111212;1243;49910;-61
2023/07/04 04:00:19;;;;;;;;;10.00;10.00;28.70;51.20;;;;;;111274;1240;50337;-60
2023/07/04 04:02:46;;;;;;;;;10.00;9.00;28.70;51.20;;;;;;111288;1241;54678;-60
2023/07/04 04:05:13;;;;;;;;;10.67;10.00;28.70;51.20;;;;;;111269;1241;44139;-60
2023/07/04 04:07:40;;;;;;;;;9.75;9.00;28.70;51.40;;;;;;111362;1239;50126;-61
2023/07/04 04:10:08;;;;;;;;;11.25;10.00;28.70;51.20;;;;;;111210;1243;49290;-63
2023/07/04 04:12:35;;;;;;;;;10.00;9.00;28.70;51.70;;;;;;111415;1238;53384;-61
2023/07/04 04:15:03;;;;;;;;;10.00;9.00;28.70;51.20;;;;;;111271;1239;44673;-60
2023/07/04 04:17:30;;;;;;;;;27.00;21.75;28.70;51.20;;;;;;111278;1244;49290;-61
2023/07/04 04:19:57;;;;;;;;;27.25;25.00;28.70;51.90;;;;;;111407;1238;50965;-62
2023/07/04 04:22:24;;;;;;;;;23.00;20.75;28.70;51.10;;;;;;111497;1241;53731;-61
2023/07/04 04:24:51;;;;;;;;;24.75;22.75;28.70;50.90;;;;;;111611;1241;44545;-61
2023/07/04 04:27:18;;;;;;;;;26.50;21.50;28.60;50.70;;;;;;111297;1242;50111;-59
2023/07/04 04:29:45;;;;;;;;;20.50;19.00;28.60;50.90;;;;;;111235;1242;49014;-59
2023/07/04 04:32:12;;;;;;;;;23.67;22.00;28.60;50.60;;;;;;111360;1238;53765;-56
2023/07/04 04:34:40;;;;;;;;;22.00;21.25;28.50;50.70;;;;;;111352;1241;45697;-57
2023/07/04 04:37:07;;;;;;;;;25.00;20.50;28.50;50.60;;;;;;111502;1238;50953;-55
2023/07/04 04:39:34;;;;;;;;;19.67;17.67;28.50;51.50;;;;;;111268;1243;49396;-57
2023/07/04 04:42:01;;;;;;;;;23.50;19.00;28.40;51.70;;;;;;111383;1243;53420;-55
2023/07/04 04:44:28;;;;;;;;;24.25;21.00;28.40;52.00;;;;;;111353;1238;44601;-54
2023/07/04 04:46:55;;;;;;;;;21.00;19.00;28.30;51.80;;;;;;111237;1238;49981;-56
2023/07/04 04:49:22;;;;;;;;;26.25;22.25;28.30;51.40;;;;;;111362;1242;50229;-56
2023/07/04 04:51:52;;;;;;;;;21.75;21.00;28.30;51.20;;;;;;111290;1243;53933;-56
2023/07/04 04:54:19;;;;;;;;;25.00;22.75;28.20;50.90;;;;;;111367;1243;45406;-57
2023/07/04 04:56:46;;;;;;;;;23.00;22.00;28.20;51.50;;;;;;111307;1244;49384;-68
2023/07/04 04:59:13;;;;;;;;;21.50;19.25;28.10;51.20;;;;;;111260;1238;49290;-74
2023/07/04 05:01:41;;;;;;;;;20.50;20.00;;;;;;;;111382;1238;54109;-67
2023/07/04 05:04:07;;;;;;;;;20.75;19.25;28.00;50.80;;;;;;111421;1242;44611;-70
2023/07/04 05:06:36;;;;;;;;;22.00;20.00;28.00;51.20;;;;;;111289;1237;49539;-71
2023/07/04 05:09:04;;;;;;;;;21.75;20.75;27.90;51.30;;;;;;111388;1238;49566;-70
2023/07/04 05:11:32;;;;;;;;;21.25;19.75;27.90;51.40;;;;;;111393;1238;53734;-70
2023/07/04 05:14:00;;;;;;;;;21.50;20.00;27.90;51.50;;;;;;111432;1241;45137;-68
2023/07/04 05:16:27;;;;;;;;;23.00;20.25;27.90;51.70;;;;;;111703;1238;50191;-67
2023/07/04 05:18:54;;;;;;;;;21.25;19.25;27.80;52.00;;;;;;111515;1241;49555;-67
2023/07/04 05:21:22;;;;;;;;;21.75;21.25;27.80;51.90;;;;;;111418;1239;53642;-69
2023/07/04 05:23:52;;;;;;;;;20.50;19.00;27.80;51.90;;;;;;111287;1240;44370;-69
2023/07/04 05:26:25;;;;;;;;;24.75;23.75;27.70;52.00;;;;;;111539;1238;49711;-66
2023/07/04 05:28:55;;;;;;;;;76.50;55.25;27.70;52.30;;;;;;111625;1243;48929;-70
2023/07/04 05:31:27;;;;;;;;;70.25;50.00;27.70;52.50;;;;;;111470;1241;53366;-67
2023/07/04 05:33:55;;;;;;;;;64.33;46.67;27.70;52.40;;;;;;111463;1242;45012;-67
2023/07/04 05:36:25;;;;;;;;;58.00;41.75;27.70;53.30;;;;;;111116;1244;135801;-65
2023/07/04 05:38:54;;;;;;;;;48.50;36.25;27.60;53.40;;;;;;111447;1238;50543;-65
2023/07/04 05:41:23;;;;;;;;;39.00;32.50;27.60;53.20;;;;;;111258;1241;53465;-68
2023/07/04 05:43:50;;;;;;;;;33.00;29.00;27.60;53.30;;;;;;111231;1242;45954;-67
2023/07/04 05:46:18;;;;;;;;;34.25;29.25;27.60;53.30;;;;;;111145;1238;49853;-67
2023/07/04 05:48:45;;;;;;;;;31.75;26.00;27.60;53.30;;;;;;111391;1240;49275;-67
2023/07/04 05:51:14;;;;;;;;;26.50;24.50;27.60;53.10;;;;;;111414;1237;54016;-66
2023/07/04 05:53:43;;;;;;;;;24.00;23.25;27.50;53.60;;;;;;111749;1241;44995;-66
2023/07/04 05:56:20;;;;;;;;;28.67;26.67;27.50;53.10;;;;;;111002;1243;50510;-66
2023/07/04 05:58:52;;;;;;;;;25.67;24.00;27.50;53.10;;;;;;111417;1241;50055;-67
2023/07/04 06:01:32;;;;;;;;;25.75;23.75;27.50;53.10;;;;;;111633;1238;53649;-66
2023/07/04 06:04:01;;;;;;;;;25.00;23.00;27.50;53.00;;;;;;111331;1238;44369;-66
2023/07/04 06:06:33;;;;;;;;;26.00;24.00;27.50;53.30;;;;;;111401;1243;49501;-66
2023/07/04 06:09:02;;;;;;;;;25.75;23.75;27.40;53.10;;;;;;111701;1238;49500;-66
2023/07/04 06:11:32;;;;;;;;;21.50;20.75;27.40;53.10;;;;;;111656;1241;53945;-66
2023/07/04 06:14:03;;;;;;;;;24.67;23.00;27.40;53.20;;;;;;111543;1238;44164;-66
2023/07/04 06:16:31;;;;;;;;;22.00;21.00;27.40;53.20;;;;;;111594;1241;48993;-65
2023/07/04 06:18:58;;;;;;;;;24.00;23.00;27.40;53.10;;;;;;111364;1243;49751;-66
2023/07/04 06:21:25;;;;;;;;;20.33;20.00;27.40;53.10;;;;;;111533;1241;53124;-66
2023/07/04 06:23:55;;;;;;;;;24.67;22.33;27.30;53.10;;;;;;111355;1241;44219;-66
2023/07/04 06:26:27;;;;;;;;;21.25;20.50;27.40;53.40;;;;;;111458;1238;49466;-67
2023/07/04 06:28:55;;;;;;;;;23.00;21.00;27.30;53.40;;;;;;111562;1238;49711;-67
2023/07/04 06:31:22;;;;;;;;;20.00;18.00;27.40;52.90;;;;;;111266;1242;54107;-67
2023/07/04 06:33:49;;;;;;;;;24.00;23.00;27.40;53.80;;;;;;111237;1243;45023;-67
2023/07/04 06:36:16;;;;;;;;;22.33;21.00;27.30;54.00;;;;;;111537;1239;49471;-67
2023/07/04 06:38:43;;;;;;;;;21.00;20.00;27.30;54.40;;;;;;111360;1238;49823;-67
2023/07/04 06:41:13;;;;;;;;;22.00;20.67;27.30;54.00;;;;;;111595;1241;54333;-67
2023/07/04 06:43:43;;;;;;;;;22.00;20.00;27.30;54.30;;;;;;111286;1240;44269;-66
2023/07/04 06:46:14;;;;;;;;;22.00;20.50;27.30;54.60;;;;;;111509;1237;49260;-67
2023/07/04 06:48:41;;;;;;;;;22.33;21.00;27.30;54.90;;;;;;111276;1238;49873;-66
2023/07/04 06:51:12;;;;;;;;;23.67;23.00;27.40;54.80;;;;;;111433;1238;53731;-67
2023/07/04 06:53:40;;;;;;;;;19.50;18.75;27.40;54.90;;;;;;111610;1238;44643;-66
2023/07/04 06:56:14;;;;;;;;;21.75;21.25;27.40;55.20;;;;;;111689;1241;49685;-66
2023/07/04 06:58:43;;;;;;;;;20.50;19.75;27.40;55.30;;;;;;111536;1239;49288;-67
2023/07/04 07:01:11;;;;;;;;;23.00;22.00;27.40;55.20;;;;;;111369;1238;54138;-66
2023/07/04 07:03:38;;;;;;;;;21.50;21.00;27.40;55.30;;;;;;111249;1243;44233;-66
2023/07/04 07:06:07;;;;;;;;;25.25;23.00;27.40;55.20;;;;;;111458;1241;49001;-66
2023/07/04 07:08:34;;;;;;;;;19.67;19.33;27.40;55.30;;;;;;111274;1238;50758;-65
2023/07/04 07:11:06;;;;;;;;;19.25;18.00;27.40;55.30;;;;;;111450;1238;54770;-67
2023/07/04 07:13:35;;;;;;;;;22.25;20.75;27.40;55.40;;;;;;111546;1239;44900;-66
2023/07/04 07:16:04;;;;;;;;;22.25;21.75;27.40;55.40;;;;;;111402;1241;49350;-66
2023/07/04 07:18:33;;;;;;;;;26.50;21.75;27.40;55.50;;;;;;111278;1244;49460;-66
2023/07/04 07:21:05;;;;;;;;;23.50;22.75;27.40;55.80;;;;;;111441;1237;54435;-66
2023/07/04 07:23:33;;;;;;;;;26.00;24.00;27.50;55.70;;;;;;111297;1243;44660;-66
2023/07/04 07:26:02;;;;;;;;;22.25;21.50;27.50;55.80;;;;;;111293;1242;50490;-66
2023/07/04 07:28:31;;;;;;;;;24.25;21.75;27.50;56.00;;;;;;111529;1241;49684;-67
2023/07/04 07:31:23;;;;;;;;;23.75;23.00;27.50;56.00;;;;;;111282;1243;54149;-67
2023/07/04 07:33:52;;;;;;;;;22.00;21.25;27.50;55.90;;;;;;111261;1243;44718;-67
2023/07/04 07:36:22;;;;;;;;;24.25;22.25;27.50;55.80;;;;;;111324;1244;48855;-67
2023/07/04 07:38:51;;;;;;;;;26.50;24.50;27.50;55.90;;;;;;111396;1241;48976;-68
2023/07/04 07:41:19;;;;;;;;;25.00;23.00;27.60;56.00;;;;;;111384;1238;53734;-66
2023/07/04 07:43:46;;;;;;;;;24.33;23.00;27.60;55.90;;;;;;111540;1237;45105;-66
2023/07/04 07:46:16;;;;;;;;;22.75;22.25;27.60;55.80;;;;;;111428;1244;49231;-66
2023/07/04 07:48:44;;;;;;;;;23.25;21.50;27.60;55.90;;;;;;111296;1242;48949;-68
2023/07/04 07:51:12;;;;;;;;;20.25;19.75;27.60;56.20;;;;;;111294;1244;53316;-66
2023/07/04 07:53:42;;;;;;;;;26.67;22.00;27.60;56.00;;;;;;111575;1241;44656;-66
2023/07/04 07:56:11;;;;;;;;;24.75;23.50;27.70;56.30;;;;;;111560;1238;50379;-66
2023/07/04 07:58:38;;;;;;;;;25.00;24.00;27.70;56.30;;;;;;111566;1238;49963;-66
2023/07/04 08:01:13;;;;;;;;;24.00;22.50;27.70;56.30;;;;;;111367;1244;53465;-67
2023/07/04 08:03:40;;;;;;;;;25.25;24.00;27.80;56.30;;;;;;111295;1239;44767;-67
2023/07/04 08:06:25;;;;;;;;;24.75;23.00;27.70;56.50;;;;;;111275;1241;49694;-67
2023/07/04 08:08:54;;;;;;;;;23.00;22.33;27.80;56.40;;;;;;111277;1238;49066;-68
2023/07/04 08:11:21;;;;;;;;;24.00;22.25;27.80;56.40;;;;;;111246;1242;53695;-67
2023/07/04 08:13:48;;;;;;;;;26.25;25.00;27.80;56.30;;;;;;111440;1238;45034;-69
2023/07/04 08:16:37;;;;;;;;;26.00;24.00;27.80;56.40;;;;;;111291;1238;49726;-68
2023/07/04 08:19:04;;;;;;;;;24.00;22.75;27.90;56.40;;;;;;111113;1242;49684;-67
2023/07/04 08:21:31;;;;;;;;;27.00;25.25;27.90;56.30;;;;;;111235;1242;55229;-66
2023/07/04 08:23:58;;;;;;;;;26.50;24.75;27.90;56.20;;;;;;111398;1237;44564;-67
2023/07/04 08:26:26;;;;;;;;;22.75;22.00;28.00;56.30;;;;;;111483;1238;49080;-67
2023/07/04 08:28:55;;;;;;;;;29.00;25.00;28.00;56.20;;;;;;111200;1244;48761;-67
2023/07/04 08:31:23;;;;;;;;;25.00;24.00;28.00;56.30;;;;;;111412;1241;53144;-66
2023/07/04 08:33:50;;;;;;;;;24.00;23.00;28.00;56.30;;;;;;111305;1241;44670;-67
2023/07/04 08:36:18;;;;;;;;;27.50;25.25;28.10;56.20;;;;;;111297;1238;49738;-67
2023/07/04 08:38:47;;;;;;;;;25.00;22.25;28.10;56.10;;;;;;111564;1241;49519;-67
2023/07/04 08:41:31;;;;;;;;;24.75;22.25;28.10;56.10;;;;;;111527;1237;53750;-67
2023/07/04 08:44:18;;;;;;;;;26.00;23.50;28.10;56.10;;;;;;111588;1238;44905;-66
2023/07/04 08:46:48;;;;;;;;;23.50;21.75;28.10;55.80;;;;;;111263;1241;49192;-68
2023/07/04 08:49:41;;;;;;;;;20.67;19.00;28.20;55.70;;;;;;111300;1239;48962;-68
2023/07/04 08:52:40;;;;;;;;;20.00;19.50;28.20;55.30;;;;;;111430;1238;54894;-67
2023/07/04 08:55:11;;;;;;;;;21.00;19.25;28.20;55.30;;;;;;111437;1238;45700;-68
2023/07/04 08:57:45;;;;;;;;;24.00;23.00;28.30;55.30;;;;;;111329;1241;49168;-64
2023/07/04 09:00:20;;;;;;;;;23.50;21.50;28.30;55.40;;;;;;111308;1238;50393;-65
2023/07/04 09:03:09;;;;;;;;;21.75;21.25;28.30;55.10;;;;;;111289;1244;53856;-65
2023/07/04 09:05:48;;;;;;;;;21.00;20.50;28.30;54.90;;;;;;111468;1242;45480;-65
2023/07/04 09:08:51;;;;;;;;;20.00;19.25;28.30;54.80;;;;;;111464;1241;49609;-65
2023/07/04 09:11:18;;;;;;;;;21.00;19.00;28.40;54.80;;;;;;111482;1238;49655;-64
2023/07/04 09:14:24;;;;;;;;;20.50;19.50;28.40;54.70;;;;;;111421;1238;53935;-65
2023/07/04 09:16:52;;;;;;;;;19.25;18.75;28.40;54.90;;;;;;111278;1243;45463;-65
2023/07/04 09:19:20;;;;;;;;;21.33;19.33;28.40;54.70;;;;;;111235;1241;49385;-65
2023/07/04 09:21:47;;;;;;;;;20.00;19.33;28.40;54.70;;;;;;111489;1238;50281;-64
2023/07/04 09:24:14;;;;;;;;;22.00;20.00;28.50;54.60;;;;;;111266;1241;53296;-65
2023/07/04 09:26:52;;;;;;;;;19.50;18.50;28.50;54.70;;;;;;111475;1238;45046;-64
2023/07/04 09:29:22;;;;;;;;;19.00;18.00;28.50;54.40;;;;;;111451;1238;49790;-64
2023/07/04 09:31:57;;;;;;;;;21.00;19.50;28.50;54.20;;;;;;111283;1241;49032;-65
2023/07/04 09:34:33;;;;;;;;;21.50;21.25;28.50;54.30;;;;;;111303;1242;53442;-64
2023/07/04 09:37:03;;;;;;;;;18.50;18.00;;;;;;;;111434;1241;44711;-61
2023/07/04 09:39:56;;;;;;;;;18.50;17.25;;;;;;;;111441;1241;49113;-60
2023/07/04 09:42:44;;;;;;;;;22.00;21.00;28.60;54.20;;;;;;111274;1238;48667;-62
2023/07/04 09:45:13;;;;;;;;;20.00;18.00;28.60;54.50;;;;;;111312;1241;53732;-61
2023/07/04 09:47:44;;;;;;;;;19.75;19.25;28.60;54.30;;;;;;111281;1242;44691;-61
2023/07/04 09:50:23;;;;;;;;;19.00;18.00;28.70;54.20;;;;;;111264;1241;49618;-62
2023/07/04 09:53:03;;;;;;;;;19.75;18.00;28.70;54.10;;;;;;111279;1241;49186;-66
2023/07/04 09:55:31;;;;;;;;;20.00;19.00;28.70;54.00;;;;;;111299;1243;54797;-60
2023/07/04 09:58:21;;;;;;;;;21.00;20.00;28.70;53.90;;;;;;111247;1243;45023;-61
2023/07/04 10:01:10;;;;;;;;;19.00;17.00;28.80;53.40;;;;;;111363;1241;49149;-62
2023/07/04 10:03:39;;;;;;;;;21.00;18.50;28.80;53.70;;;;;;111292;1240;49154;-62
2023/07/04 10:06:08;;;;;;;;;20.00;19.50;28.80;53.50;;;;;;111629;1241;54700;-62
2023/07/04 10:08:53;;;;;;;;;20.50;19.00;28.80;53.50;;;;;;111306;1241;44127;-63
2023/07/04 10:11:24;;;;;;;;;21.33;19.00;28.90;53.50;;;;;;111615;1238;48899;-62
2023/07/04 10:14:00;;;;;;;;;20.00;18.00;28.90;53.60;;;;;;111363;1238;49049;-62
2023/07/04 10:16:27;;;;;;;;;20.75;20.00;28.90;53.60;;;;;;111747;1238;53318;-62
2023/07/04 10:19:08;;;;;;;;;23.33;20.33;28.90;53.40;;;;;;111502;1238;44509;-62
2023/07/04 10:21:45;;;;;;;;;19.33;19.00;29.00;53.40;;;;;;111284;1243;49706;-62
2023/07/04 10:24:17;;;;;;;;;24.00;22.00;29.00;53.40;;;;;;111487;1238;49471;-62
2023/07/04 10:26:50;;;;;;;;;23.00;22.50;29.00;53.40;;;;;;111417;1238;54346;-63
2023/07/04 10:29:27;;;;;;;;;25.50;24.50;29.10;53.10;;;;;;111324;1241;45234;-62
2023/07/04 10:31:56;;;;;;;;;29.00;25.67;29.10;53.40;;;;;;111282;1243;49241;-62
2023/07/04 10:34:23;;;;;;;;;29.75;27.50;29.10;53.60;;;;;;111453;1244;49774;-61
2023/07/04 10:36:51;;;;;;;;;28.50;27.00;29.10;53.50;;;;;;111516;1239;53265;-61
2023/07/04 10:39:18;;;;;;;;;31.25;28.75;29.10;53.70;;;;;;111296;1242;45500;-62
2023/07/04 10:41:55;;;;;;;;;30.50;29.00;29.10;53.60;;;;;;111591;1238;49133;-62
2023/07/04 10:44:24;;;;;;;;;30.50;28.50;29.10;53.80;;;;;;111291;1238;49277;-62
2023/07/04 10:47:06;;;;;;;;;30.00;28.00;29.10;53.50;;;;;;111265;1238;54896;-63
2023/07/04 10:49:43;;;;;;;;;33.00;31.00;29.10;53.40;;;;;;111596;1238;44532;-62
2023/07/04 10:52:15;;;;;;;;;28.50;28.00;29.10;53.90;;;;;;111269;1240;49452;-63
2023/07/04 10:54:42;;;;;;;;;31.00;29.00;29.20;53.80;;;;;;111556;1238;49864;-62
2023/07/04 10:57:25;;;;;;;;;34.50;31.50;29.20;54.10;;;;;;111322;1238;53615;-62
2023/07/04 10:59:57;;;;;;;;;33.75;30.00;29.20;54.50;;;;;;111430;1242;45714;-63
2023/07/04 11:02:36;;;;;;;;;36.33;31.33;29.30;55.00;;;;;;111195;1243;49309;-63
2023/07/04 11:05:11;;;;;;;;;33.00;30.50;29.30;55.50;;;;;;111314;1241;48887;-63
2023/07/04 11:07:40;;;;;;;;;37.25;33.25;29.30;55.40;;;;;;111468;1241;54553;-62
2023/07/04 11:10:09;;;;;;;;;33.25;29.50;29.30;55.40;;;;;;111341;1242;44889;-63
2023/07/04 11:12:37;;;;;;;;;33.50;31.50;29.30;55.20;;;;;;111246;1241;49527;-63
2023/07/04 11:15:17;;;;;;;;;32.33;29.67;29.30;55.30;;;;;;111251;1242;49530;-63
2023/07/04 11:17:46;;;;;;;;;29.00;27.25;29.30;55.10;;;;;;111306;1243;53751;-61
2023/07/04 11:20:20;;;;;;;;;35.25;31.25;29.30;55.00;;;;;;111303;1238;45791;-62
2023/07/04 11:22:55;;;;;;;;;30.00;29.00;29.30;54.90;;;;;;111460;1243;49354;-62
2023/07/04 11:25:41;;;;;;;;;32.33;30.00;29.30;54.90;;;;;;111371;1238;50458;-63
2023/07/04 11:28:32;;;;;;;;;32.25;30.75;29.30;55.00;;;;;;111456;1238;54669;-64
2023/07/04 11:31:09;;;;;;;;;31.75;29.00;29.30;54.90;;;;;;111311;1241;44829;-63
2023/07/04 11:33:42;;;;;;;;;31.67;28.33;29.30;55.00;;;;;;111557;1241;49735;-64
2023/07/04 11:36:50;;;;;;;;;36.50;31.50;29.30;55.10;;;;;;111529;1241;49938;-63
2023/07/04 11:39:38;;;;;;;;;34.50;30.50;29.30;55.20;;;;;;111651;1241;54031;-62
2023/07/04 11:42:17;;;;;;;;;38.00;32.00;29.30;55.30;;;;;;111101;1244;44673;-62
2023/07/04 11:44:56;;;;;;;;;34.75;30.25;29.20;55.10;;;;;;111338;1238;49043;-63
2023/07/04 11:47:37;;;;;;;;;32.00;29.00;29.20;55.50;;;;;;111362;1241;48879;-62
2023/07/04 11:50:12;;;;;;;;;35.75;31.25;29.20;55.10;;;;;;111405;1241;53972;-61
2023/07/04 11:52:41;;;;;;;;;32.25;30.25;29.20;55.00;;;;;;111431;1241;44751;-63
2023/07/04 11:55:14;;;;;;;;;31.00;29.25;29.20;55.00;;;;;;111349;1244;49130;-62
2023/07/04 11:58:02;;;;;;;;;31.67;28.67;29.20;55.10;;;;;;111313;1238;49788;-62
2023/07/04 12:00:32;;;;;;;;;34.50;29.50;29.20;55.10;;;;;;111229;1244;54372;-62
2023/07/04 12:03:17;;;;;;;;;31.00;28.50;29.20;55.10;;;;;;111468;1238;44482;-64
2023/07/04 12:05:50;;;;;;;;;32.75;29.00;29.20;55.30;;;;;;111429;1241;49197;-62
2023/07/04 12:08:47;;;;;;;;;28.75;27.00;29.20;55.20;;;;;;111467;1238;49491;-62
2023/07/04 12:11:20;;;;;;;;;34.25;29.50;29.10;55.10;;;;;;111421;1241;54323;-62
2023/07/04 12:13:49;;;;;;;;;28.75;28.00;29.10;55.20;;;;;;111267;1243;45005;-62
2023/07/04 12:16:20;;;;;;;;;30.25;28.00;29.10;55.30;;;;;;111318;1244;49659;-62
2023/07/04 12:18:47;;;;;;;;;32.25;29.75;29.10;55.40;;;;;;111257;1241;49906;-61
2023/07/04 12:21:19;;;;;;;;;29.50;28.25;29.10;55.50;;;;;;111461;1239;53578;-63
2023/07/04 12:23:46;;;;;;;;;27.75;26.75;29.10;55.60;;;;;;111242;1243;44213;-62
2023/07/04 12:26:18;;;;;;;;;26.75;26.50;29.10;56.10;;;;;;111404;1244;50177;-61
2023/07/04 12:28:47;;;;;;;;;29.33;28.33;29.10;55.80;;;;;;111294;1239;49624;-61
2023/07/04 12:31:14;;;;;;;;;26.67;24.00;29.10;56.00;;;;;;111360;1242;53784;-63
2023/07/04 12:33:45;;;;;;;;;28.00;26.25;29.10;56.00;;;;;;111500;1238;44334;-64
2023/07/04 12:36:15;;;;;;;;;27.75;24.50;29.10;55.80;;;;;;111340;1239;49232;-64
2023/07/04 12:38:46;;;;;;;;;28.00;27.00;29.10;55.90;;;;;;111614;1238;49475;-64
2023/07/04 12:41:17;;;;;;;;;28.00;26.67;29.10;57.00;;;;;;111256;1244;53338;-64